sensor_id;sensor_type;location;lat;lon;timestamp;pressure;altitude;pressure_sealevel;temperature;humidity
65131;BME280;51709;54.912;8.316;2023-02-16T00:02:51;101957.69;;;5.38;89.73
65131;BME280;51709;54.912;8.316;2023-02-16T00:08:11;101950.94;;;5.40;89.87
65131;BME280;51709;54.912;8.316;2023-02-16T00:13:32;101953.50;;;5.42;90.02
65131;BME280;51709;54.912;8.316;2023-02-16T00:24:38;101955.38;;;5.50;89.59
65131;BME280;51709;54.912;8.316;2023-02-16T00:29:58;101960.53;;;5.55;89.63
65131;BME280;51709;54.912;8.316;2023-02-16T00:35:20;101948.78;;;5.60;89.38
65131;BME280;51709;54.912;8.316;2023-02-16T00:40:41;101939.41;;;5.58;89.52
65131;BME280;51709;54.912;8.316;2023-02-16T00:46:03;101935.91;;;5.54;89.52
65131;BME280;51709;54.912;8.316;2023-02-16T00:51:23;101949.59;;;5.58;89.61
65131;BME280;51709;54.912;8.316;2023-02-16T00:56:46;101936.81;;;5.56;89.44
65131;BME280;51709;54.912;8.316;2023-02-16T01:02:06;101933.28;;;5.49;89.41
65131;BME280;51709;54.912;8.316;2023-02-16T01:07:29;101935.81;;;5.48;89.58
65131;BME280;51709;54.912;8.316;2023-02-16T01:13:13;101937.53;;;5.49;89.52
65131;BME280;51709;54.912;8.316;2023-02-16T01:18:33;101944.28;;;5.45;89.41
65131;BME280;51709;54.912;8.316;2023-02-16T01:23:54;101936.59;;;5.44;89.50
65131;BME280;51709;54.912;8.316;2023-02-16T01:29:20;101939.13;;;5.42;89.63
65131;BME280;51709;54.912;8.316;2023-02-16T01:34:43;101932.31;;;5.41;89.44
65131;BME280;51709;54.912;8.316;2023-02-16T01:40:04;101919.59;;;5.43;89.38
65131;BME280;51709;54.912;8.316;2023-02-16T01:45:32;101918.81;;;5.45;89.25
65131;BME280;51709;54.912;8.316;2023-02-16T01:51:21;101921.44;;;5.50;89.15
65131;BME280;51709;54.912;8.316;2023-02-16T01:56:47;101920.56;;;5.49;89.01
65131;BME280;51709;54.912;8.316;2023-02-16T02:02:13;101911.25;;;5.51;88.98
65131;BME280;51709;54.912;8.316;2023-02-16T02:07:47;101909.47;;;5.46;89.04
65131;BME280;51709;54.912;8.316;2023-02-16T02:13:20;101901.91;;;5.49;89.02
65131;BME280;51709;54.912;8.316;2023-02-16T02:18:45;101889.19;;;5.50;88.91
65131;BME280;51709;54.912;8.316;2023-02-16T02:24:19;101883.25;;;5.50;88.77
65131;BME280;51709;54.912;8.316;2023-02-16T02:41:31;101869.75;;;5.55;88.74
65131;BME280;51709;54.912;8.316;2023-02-16T02:47:15;101866.34;;;5.55;88.41
65131;BME280;51709;54.912;8.316;2023-02-16T02:52:36;101869.78;;;5.57;88.61
65131;BME280;51709;54.912;8.316;2023-02-16T02:57:58;101856.94;;;5.51;88.58
65131;BME280;51709;54.912;8.316;2023-02-16T03:03:42;101842.50;;;5.50;88.54
65131;BME280;51709;54.912;8.316;2023-02-16T03:09:07;101843.50;;;5.60;88.01
65131;BME280;51709;54.912;8.316;2023-02-16T03:14:35;101865.50;;;5.54;88.39
65131;BME280;51709;54.912;8.316;2023-02-16T03:20:00;101854.53;;;5.60;88.38
65131;BME280;51709;54.912;8.316;2023-02-16T03:25:41;101849.47;;;5.62;88.44
65131;BME280;51709;54.912;8.316;2023-02-16T03:31:24;101841.88;;;5.63;88.43
65131;BME280;51709;54.912;8.316;2023-02-16T03:36:53;101848.63;;;5.61;88.56
65131;BME280;51709;54.912;8.316;2023-02-16T03:42:22;101838.50;;;5.64;88.42
65131;BME280;51709;54.912;8.316;2023-02-16T03:47:43;101836.88;;;5.71;88.29
65131;BME280;51709;54.912;8.316;2023-02-16T03:53:03;101831.94;;;5.80;87.99
65131;BME280;51709;54.912;8.316;2023-02-16T03:58:27;101837.06;;;5.83;87.98
65131;BME280;51709;54.912;8.316;2023-02-16T04:03:48;101843.03;;;5.84;87.95
65131;BME280;51709;54.912;8.316;2023-02-16T04:09:09;101839.72;;;5.91;88.05
65131;BME280;51709;54.912;8.316;2023-02-16T04:14:30;101850.03;;;5.99;88.13
65131;BME280;51709;54.912;8.316;2023-02-16T04:19:50;101845.91;;;6.06;87.87
65131;BME280;51709;54.912;8.316;2023-02-16T04:25:12;101833.16;;;6.04;87.78
65131;BME280;51709;54.912;8.316;2023-02-16T04:30:33;101831.44;;;6.03;87.94
65131;BME280;51709;54.912;8.316;2023-02-16T04:35:53;101833.16;;;6.04;87.83
65131;BME280;51709;54.912;8.316;2023-02-16T04:41:14;101839.97;;;6.05;88.04
65131;BME280;51709;54.912;8.316;2023-02-16T04:46:34;101834.84;;;6.04;87.92
65131;BME280;51709;54.912;8.316;2023-02-16T04:51:55;101835.66;;;6.01;88.04
65131;BME280;51709;54.912;8.316;2023-02-16T04:57:16;101833.09;;;6.01;87.94
65131;BME280;51709;54.912;8.316;2023-02-16T05:02:37;101830.47;;;5.98;87.73
65131;BME280;51709;54.912;8.316;2023-02-16T05:07:58;101841.66;;;6.06;87.67
65131;BME280;51709;54.912;8.316;2023-02-16T05:13:18;101839.88;;;6.00;87.93
65131;BME280;51709;54.912;8.316;2023-02-16T05:18:57;101839.97;;;6.07;87.79
65131;BME280;51709;54.912;8.316;2023-02-16T05:24:18;101828.97;;;6.09;87.96
65131;BME280;51709;54.912;8.316;2023-02-16T05:29:38;101834.13;;;6.12;87.88
65131;BME280;51709;54.912;8.316;2023-02-16T05:34:59;101823.94;;;6.14;87.97
65131;BME280;51709;54.912;8.316;2023-02-16T05:40:19;101828.13;;;6.12;87.97
65131;BME280;51709;54.912;8.316;2023-02-16T05:45:40;101819.66;;;6.13;87.99
65131;BME280;51709;54.912;8.316;2023-02-16T05:51:01;101819.66;;;6.13;88.06
65131;BME280;51709;54.912;8.316;2023-02-16T05:56:22;101831.66;;;6.20;87.97
65131;BME280;51709;54.912;8.316;2023-02-16T06:01:44;101823.19;;;6.21;87.90
65131;BME280;51709;54.912;8.316;2023-02-16T06:07:10;101825.78;;;6.26;87.94
65131;BME280;51709;54.912;8.316;2023-02-16T06:12:34;101810.50;;;6.27;87.78
65131;BME280;51709;54.912;8.316;2023-02-16T06:17:55;101807.13;;;6.28;87.90
65131;BME280;51709;54.912;8.316;2023-02-16T06:23:16;101808.75;;;6.22;87.86
65131;BME280;51709;54.912;8.316;2023-02-16T06:28:36;101808.63;;;6.12;88.02
65131;BME280;51709;54.912;8.316;2023-02-16T06:33:57;101803.56;;;6.15;88.05
65131;BME280;51709;54.912;8.316;2023-02-16T06:39:17;101802.75;;;6.18;87.98
65131;BME280;51709;54.912;8.316;2023-02-16T06:44:38;101811.25;;;6.19;87.99
65131;BME280;51709;54.912;8.316;2023-02-16T06:50:05;101805.28;;;6.16;88.11
65131;BME280;51709;54.912;8.316;2023-02-16T06:55:27;101799.25;;;6.11;88.38
65131;BME280;51709;54.912;8.316;2023-02-16T07:00:53;101804.38;;;6.13;88.19
65131;BME280;51709;54.912;8.316;2023-02-16T07:06:15;101822.28;;;6.17;88.20
65131;BME280;51709;54.912;8.316;2023-02-16T07:11:54;101814.66;;;6.19;88.09
65131;BME280;51709;54.912;8.316;2023-02-16T07:17:37;101818.97;;;6.23;87.99
65131;BME280;51709;54.912;8.316;2023-02-16T07:23:01;101835.16;;;6.30;88.01
65131;BME280;51709;54.912;8.316;2023-02-16T07:28:45;101821.63;;;6.32;87.84
65131;BME280;51709;54.912;8.316;2023-02-16T07:34:14;101820.53;;;6.15;87.87
65131;BME280;51709;54.912;8.316;2023-02-16T07:39:54;101824.81;;;6.14;88.35
65131;BME280;51709;54.912;8.316;2023-02-16T07:45:15;101825.69;;;6.20;88.26
65131;BME280;51709;54.912;8.316;2023-02-16T07:50:42;101829.28;;;6.32;87.89
65131;BME280;51709;54.912;8.316;2023-02-16T07:56:03;101818.16;;;6.27;87.97
65131;BME280;51709;54.912;8.316;2023-02-16T08:01:43;101814.78;;;6.28;88.15
65131;BME280;51709;54.912;8.316;2023-02-16T08:07:03;101824.19;;;6.32;87.80
65131;BME280;51709;54.912;8.316;2023-02-16T08:12:24;101825.91;;;6.35;87.98
65131;BME280;51709;54.912;8.316;2023-02-16T08:17:45;101832.09;;;6.54;87.22
65131;BME280;51709;54.912;8.316;2023-02-16T08:23:05;101832.91;;;6.53;87.04
65131;BME280;51709;54.912;8.316;2023-02-16T08:28:27;101843.91;;;6.46;87.08
65131;BME280;51709;54.912;8.316;2023-02-16T08:34:08;101838.66;;;6.34;87.88
65131;BME280;51709;54.912;8.316;2023-02-16T08:39:31;101849.00;;;6.49;87.25
65131;BME280;51709;54.912;8.316;2023-02-16T08:44:52;101852.94;;;6.24;88.09
65131;BME280;51709;54.912;8.316;2023-02-16T08:50:13;101850.34;;;6.21;88.29
65131;BME280;51709;54.912;8.316;2023-02-16T08:55:36;101855.56;;;6.30;88.07
65131;BME280;51709;54.912;8.316;2023-02-16T09:01:16;101845.31;;;6.24;88.13
65131;BME280;51709;54.912;8.316;2023-02-16T09:06:39;101852.13;;;6.25;88.00
65131;BME280;51709;54.912;8.316;2023-02-16T09:12:00;101844.47;;;6.25;88.00
65131;BME280;51709;54.912;8.316;2023-02-16T09:17:20;101848.75;;;6.26;87.86
65131;BME280;51709;54.912;8.316;2023-02-16T09:22:44;101854.00;;;6.38;87.60
65131;BME280;51709;54.912;8.316;2023-02-16T09:28:06;101852.44;;;6.50;87.55
65131;BME280;51709;54.912;8.316;2023-02-16T09:33:28;101866.22;;;6.67;87.20
65131;BME280;51709;54.912;8.316;2023-02-16T09:38:50;101858.91;;;6.95;86.04
65131;BME280;51709;54.912;8.316;2023-02-16T09:49:54;101863.13;;;6.93;86.06
65131;BME280;51709;54.912;8.316;2023-02-16T09:55:18;101872.50;;;6.94;85.95
65131;BME280;51709;54.912;8.316;2023-02-16T10:00:47;101872.50;;;6.92;85.96
65131;BME280;51709;54.912;8.316;2023-02-16T10:11:44;101863.38;;;7.18;85.54
65131;BME280;51709;54.912;8.316;2023-02-16T10:17:43;101868.53;;;7.22;85.39
65131;BME280;51709;54.912;8.316;2023-02-16T10:23:33;101858.47;;;7.38;85.32
65131;BME280;51709;54.912;8.316;2023-02-16T10:29:00;101862.94;;;7.67;84.78
65131;BME280;51709;54.912;8.316;2023-02-16T10:40:03;101867.53;;;8.17;83.76
65131;BME280;51709;54.912;8.316;2023-02-16T10:45:45;101871.78;;;8.15;83.71
65131;BME280;51709;54.912;8.316;2023-02-16T10:51:15;101883.50;;;7.84;84.79
65131;BME280;51709;54.912;8.316;2023-02-16T10:56:38;101888.69;;;7.96;84.92
65131;BME280;51709;54.912;8.316;2023-02-16T11:02:02;101883.66;;;8.07;84.56
65131;BME280;51709;54.912;8.316;2023-02-16T11:07:28;101875.34;;;8.41;83.93
65131;BME280;51709;54.912;8.316;2023-02-16T11:12:55;101872.72;;;8.28;84.20
65131;BME280;51709;54.912;8.316;2023-02-16T11:18:31;101882.09;;;8.31;84.41
65131;BME280;51709;54.912;8.316;2023-02-16T11:23:58;101883.84;;;8.40;84.15
65131;BME280;51709;54.912;8.316;2023-02-16T11:29:21;101881.38;;;8.52;84.00
65131;BME280;51709;54.912;8.316;2023-02-16T11:35:00;101878.00;;;8.61;83.99
65131;BME280;51709;54.912;8.316;2023-02-16T11:40:31;101878.03;;;8.62;84.05
65131;BME280;51709;54.912;8.316;2023-02-16T11:45:57;101869.38;;;8.45;84.47
65131;BME280;51709;54.912;8.316;2023-02-16T11:51:30;101868.44;;;8.27;84.99
65131;BME280;51709;54.912;8.316;2023-02-16T11:57:06;101865.81;;;8.18;85.17
65131;BME280;51709;54.912;8.316;2023-02-16T12:08:36;101864.97;;;8.11;85.37
65131;BME280;51709;54.912;8.316;2023-02-16T12:19:53;101853.78;;;7.97;85.40
65131;BME280;51709;54.912;8.316;2023-02-16T12:42:39;101829.19;;;8.19;85.24
65131;BME280;51709;54.912;8.316;2023-02-16T12:54:06;101820.97;;;9.10;82.68
65131;BME280;51709;54.912;8.316;2023-02-16T12:59:56;101832.78;;;8.58;83.92
65131;BME280;51709;54.912;8.316;2023-02-16T13:05:26;101835.13;;;8.18;85.21
65131;BME280;51709;54.912;8.316;2023-02-16T13:16:18;101808.69;;;8.14;85.47
65131;BME280;51709;54.912;8.316;2023-02-16T13:32:52;101817.78;;;7.64;86.32
65131;BME280;51709;54.912;8.316;2023-02-16T13:38:48;101818.53;;;7.49;86.83
65131;BME280;51709;54.912;8.316;2023-02-16T13:44:27;101806.78;;;7.76;86.47
65131;BME280;51709;54.912;8.316;2023-02-16T13:50:05;101795.84;;;7.96;85.11
65131;BME280;51709;54.912;8.316;2023-02-16T13:55:31;101793.28;;;7.97;85.04
65131;BME280;51709;54.912;8.316;2023-02-16T14:00:52;101789.84;;;7.92;85.24
65131;BME280;51709;54.912;8.316;2023-02-16T14:06:30;101783.94;;;8.04;85.28
65131;BME280;51709;54.912;8.316;2023-02-16T14:20:03;101764.41;;;8.18;84.20
65131;BME280;51709;54.912;8.316;2023-02-16T14:25:36;101760.78;;;7.76;85.53
65131;BME280;51709;54.912;8.316;2023-02-16T14:30:58;101749.69;;;7.71;85.85
65131;BME280;51709;54.912;8.316;2023-02-16T14:36:21;101753.03;;;7.56;85.94
65131;BME280;51709;54.912;8.316;2023-02-16T14:41:46;101758.91;;;7.46;86.18
65131;BME280;51709;54.912;8.316;2023-02-16T14:47:16;101763.94;;;7.36;86.46
65131;BME280;51709;54.912;8.316;2023-02-16T15:04:11;101765.69;;;7.39;85.58
65131;BME280;51709;54.912;8.316;2023-02-16T15:09:33;101770.72;;;7.33;85.51
65131;BME280;51709;54.912;8.316;2023-02-16T15:15:00;101757.06;;;7.24;85.47
65131;BME280;51709;54.912;8.316;2023-02-16T15:20:30;101762.97;;;7.19;85.43
65131;BME280;51709;54.912;8.316;2023-02-16T15:26:04;101757.06;;;7.23;85.64
65131;BME280;51709;54.912;8.316;2023-02-16T15:31:35;101769.75;;;7.18;85.60
65131;BME280;51709;54.912;8.316;2023-02-16T15:36:56;101759.50;;;7.14;85.76
65131;BME280;51709;54.912;8.316;2023-02-16T15:42:24;101749.31;;;7.12;85.61
65131;BME280;51709;54.912;8.316;2023-02-16T15:47:47;101751.84;;;7.11;85.70
65131;BME280;51709;54.912;8.316;2023-02-16T15:53:22;101755.94;;;6.94;86.05
65131;BME280;51709;54.912;8.316;2023-02-16T15:58:43;101752.59;;;6.97;85.96
65131;BME280;51709;54.912;8.316;2023-02-16T16:04:14;101746.63;;;6.95;85.42
65131;BME280;51709;54.912;8.316;2023-02-16T16:09:37;101744.00;;;6.89;85.95
65131;BME280;51709;54.912;8.316;2023-02-16T16:14:59;101745.44;;;6.60;86.96
65131;BME280;51709;54.912;8.316;2023-02-16T16:20:26;101729.16;;;6.46;87.33
65131;BME280;51709;54.912;8.316;2023-02-16T16:25:47;101714.59;;;6.39;87.42
65131;BME280;51709;54.912;8.316;2023-02-16T16:31:32;101694.91;;;6.25;87.45
65131;BME280;51709;54.912;8.316;2023-02-16T16:36:55;101706.03;;;6.30;87.43
65131;BME280;51709;54.912;8.316;2023-02-16T16:42:21;101702.56;;;6.25;86.96
65131;BME280;51709;54.912;8.316;2023-02-16T16:47:49;101700.06;;;6.27;86.90
65131;BME280;51709;54.912;8.316;2023-02-16T16:58:49;101706.81;;;6.26;86.93
65131;BME280;51709;54.912;8.316;2023-02-16T17:04:10;101710.22;;;6.25;86.73
65131;BME280;51709;54.912;8.316;2023-02-16T17:09:31;101700.81;;;6.20;86.80
65131;BME280;51709;54.912;8.316;2023-02-16T17:14:52;101709.38;;;6.25;86.65
65131;BME280;51709;54.912;8.316;2023-02-16T17:20:13;101704.22;;;6.22;86.58
65131;BME280;51709;54.912;8.316;2023-02-16T17:25:34;101705.13;;;6.25;86.53
65131;BME280;51709;54.912;8.316;2023-02-16T17:30:55;101701.72;;;6.25;86.48
65131;BME280;51709;54.912;8.316;2023-02-16T17:36:16;101691.56;;;6.31;86.38
65131;BME280;51709;54.912;8.316;2023-02-16T17:41:37;101685.69;;;6.34;86.41
65131;BME280;51709;54.912;8.316;2023-02-16T17:46:58;101684.75;;;6.28;86.46
65131;BME280;51709;54.912;8.316;2023-02-16T17:52:18;101678.03;;;6.35;86.35
65131;BME280;51709;54.912;8.316;2023-02-16T17:57:39;101678.91;;;6.37;86.24
65131;BME280;51709;54.912;8.316;2023-02-16T18:03:00;101675.34;;;6.24;86.73
65131;BME280;51709;54.912;8.316;2023-02-16T18:08:20;101675.41;;;6.27;86.56
65131;BME280;51709;54.912;8.316;2023-02-16T18:13:41;101667.72;;;6.23;86.77
65131;BME280;51709;54.912;8.316;2023-02-16T18:19:02;101662.56;;;6.20;87.09
65131;BME280;51709;54.912;8.316;2023-02-16T18:24:23;101662.63;;;6.23;86.99
65131;BME280;51709;54.912;8.316;2023-02-16T18:29:44;101660.91;;;6.22;86.86
65131;BME280;51709;54.912;8.316;2023-02-16T18:35:05;101659.09;;;6.13;87.10
65131;BME280;51709;54.912;8.316;2023-02-16T18:40:25;101648.03;;;6.08;87.04
65131;BME280;51709;54.912;8.316;2023-02-16T18:45:46;101640.34;;;6.06;87.22
65131;BME280;51709;54.912;8.316;2023-02-16T18:51:09;101621.66;;;6.06;87.02
65131;BME280;51709;54.912;8.316;2023-02-16T18:56:29;101612.38;;;6.12;86.94
65131;BME280;51709;54.912;8.316;2023-02-16T19:01:58;101608.16;;;6.16;86.97
65131;BME280;51709;54.912;8.316;2023-02-16T19:07:18;101602.31;;;6.23;86.92
65131;BME280;51709;54.912;8.316;2023-02-16T19:12:39;101599.75;;;6.23;86.82
65131;BME280;51709;54.912;8.316;2023-02-16T19:18:00;101593.78;;;6.21;86.92
65131;BME280;51709;54.912;8.316;2023-02-16T19:23:20;101581.00;;;6.20;86.99
65131;BME280;51709;54.912;8.316;2023-02-16T19:28:41;101575.06;;;6.19;87.14
65131;BME280;51709;54.912;8.316;2023-02-16T19:34:02;101566.63;;;6.23;87.09
65131;BME280;51709;54.912;8.316;2023-02-16T19:39:23;101566.59;;;6.22;86.88
65131;BME280;51709;54.912;8.316;2023-02-16T19:44:43;101554.75;;;6.27;87.16
65131;BME280;51709;54.912;8.316;2023-02-16T19:50:04;101536.03;;;6.26;87.26
65131;BME280;51709;54.912;8.316;2023-02-16T19:55:25;101525.00;;;6.26;87.29
65131;BME280;51709;54.912;8.316;2023-02-16T20:00:46;101517.19;;;6.07;87.72
65131;BME280;51709;54.912;8.316;2023-02-16T20:06:19;101499.22;;;5.95;87.94
65131;BME280;51709;54.912;8.316;2023-02-16T20:11:40;101490.69;;;5.90;88.28
65131;BME280;51709;54.912;8.316;2023-02-16T20:17:00;101483.88;;;5.90;88.07
65131;BME280;51709;54.912;8.316;2023-02-16T20:22:21;101476.25;;;5.90;88.21
65131;BME280;51709;54.912;8.316;2023-02-16T20:27:42;101474.56;;;5.91;88.21
65131;BME280;51709;54.912;8.316;2023-02-16T20:33:02;101459.31;;;5.94;88.12
65131;BME280;51709;54.912;8.316;2023-02-16T20:38:23;101449.13;;;5.95;88.28
65131;BME280;51709;54.912;8.316;2023-02-16T20:43:44;101458.56;;;5.99;88.37
65131;BME280;51709;54.912;8.316;2023-02-16T20:49:06;101455.16;;;6.02;88.15
65131;BME280;51709;54.912;8.316;2023-02-16T20:54:26;101447.50;;;6.00;88.59
65131;BME280;51709;54.912;8.316;2023-02-16T20:59:48;101446.63;;;5.98;88.88
65131;BME280;51709;54.912;8.316;2023-02-16T21:05:09;101434.72;;;5.99;88.97
65131;BME280;51709;54.912;8.316;2023-02-16T21:10:29;101440.66;;;5.96;89.08
65131;BME280;51709;54.912;8.316;2023-02-16T21:15:53;101442.34;;;5.99;89.08
65131;BME280;51709;54.912;8.316;2023-02-16T21:21:14;101442.31;;;5.96;89.17
65131;BME280;51709;54.912;8.316;2023-02-16T21:26:35;101430.41;;;5.90;89.06
65131;BME280;51709;54.912;8.316;2023-02-16T21:31:55;101423.59;;;5.86;89.37
65131;BME280;51709;54.912;8.316;2023-02-16T21:37:17;101421.00;;;5.81;89.35
65131;BME280;51709;54.912;8.316;2023-02-16T21:42:38;101408.22;;;5.77;89.43
65131;BME280;51709;54.912;8.316;2023-02-16T21:47:59;101394.63;;;5.76;89.66
65131;BME280;51709;54.912;8.316;2023-02-16T22:00:17;101374.22;;;5.70;89.58
65131;BME280;51709;54.912;8.316;2023-02-16T22:05:39;101371.66;;;5.68;89.60
65131;BME280;51709;54.912;8.316;2023-02-16T22:11:11;101349.56;;;5.67;89.80
65131;BME280;51709;54.912;8.316;2023-02-16T22:16:34;101325.81;;;5.67;89.72
65131;BME280;51709;54.912;8.316;2023-02-16T22:21:55;101324.09;;;5.67;89.57
65131;BME280;51709;54.912;8.316;2023-02-16T22:27:20;101316.47;;;5.67;89.74
65131;BME280;51709;54.912;8.316;2023-02-16T22:32:41;101300.38;;;5.70;89.72
65131;BME280;51709;54.912;8.316;2023-02-16T22:38:01;101288.47;;;5.70;89.72
65131;BME280;51709;54.912;8.316;2023-02-16T22:43:23;101283.38;;;5.72;89.79
65131;BME280;51709;54.912;8.316;2023-02-16T22:48:44;101274.09;;;5.76;89.79
65131;BME280;51709;54.912;8.316;2023-02-16T22:54:09;101283.44;;;5.80;89.86
65131;BME280;51709;54.912;8.316;2023-02-16T22:59:33;101283.47;;;5.81;89.87
65131;BME280;51709;54.912;8.316;2023-02-16T23:04:58;101278.41;;;5.88;89.73
65131;BME280;51709;54.912;8.316;2023-02-16T23:10:21;101290.31;;;5.93;89.46
65131;BME280;51709;54.912;8.316;2023-02-16T23:15:44;101274.19;;;5.93;89.64
65131;BME280;51709;54.912;8.316;2023-02-16T23:21:21;101281.81;;;5.96;89.68
65131;BME280;51709;54.912;8.316;2023-02-16T23:26:42;101275.09;;;6.03;89.61
65131;BME280;51709;54.912;8.316;2023-02-16T23:32:04;101270.06;;;6.13;89.38
65131;BME280;51709;54.912;8.316;2023-02-16T23:37:29;101277.72;;;6.15;89.40
65131;BME280;51709;54.912;8.316;2023-02-16T23:42:50;101262.44;;;6.23;89.30
65131;BME280;51709;54.912;8.316;2023-02-16T23:48:11;101248.88;;;6.24;89.37
65131;BME280;51709;54.912;8.316;2023-02-16T23:53:31;101248.03;;;6.28;89.12
65131;BME280;51709;54.912;8.316;2023-02-16T23:58:56;101236.16;;;6.31;89.26
